Time;durP1;ratioP1;P1;durP2;ratioP2;P2;SDS_P1;SDS_P2;PMS_P1;PMS_P2;Temp;Humidity;BMP_temperature;BMP_pressure;BME280_temperature;BME280_humidity;BME280_pressure;Samples;Min_cycle;Max_cycle;Signal;HPM_P1;HPM_P2
2022/10/31 00:00:13;;;;;;;2.45;2.25;;;;;;;;;;5004274;28;20038;-63
2022/10/31 00:02:38;;;;;;;1.83;1.73;;;;;;;;;;5006326;28;20459;-63
2022/10/31 00:05:04;;;;;;;2.65;2.45;;;;;;;;;;5007205;28;20049;-63
2022/10/31 00:07:30;;;;;;;3.00;2.67;;;;;;;;;;5009353;28;20044;-63
2022/10/31 00:09:56;;;;;;;2.90;2.60;;;;;;;;;;5002442;28;20042;-63
2022/10/31 00:12:22;;;;;;;2.65;2.38;;;;;;;;;;5003822;28;20046;-63
2022/10/31 00:14:48;;;;;;;2.70;2.47;;;;;;;;;;4999445;28;20041;-63
2022/10/31 00:17:14;;;;;;;2.92;2.13;;;;;;;;;;4996139;28;20089;-63
2022/10/31 00:19:40;;;;;;;3.80;2.13;;;;;;;;;;5004874;28;20060;-63
2022/10/31 00:22:06;;;;;;;2.95;2.35;;;;;;;;;;5022230;28;20045;-63
2022/10/31 00:24:32;;;;;;;2.85;2.22;;;;;;;;;;4997027;28;20847;-63
2022/10/31 00:26:58;;;;;;;3.08;2.47;;;;;;;;;;5013530;28;20037;-63
2022/10/31 00:29:24;;;;;;;2.53;2.33;;;;;;;;;;5019344;28;20113;-63
2022/10/31 00:31:50;;;;;;;2.53;2.25;;;;;;;;;;5013834;28;20049;-63
2022/10/31 00:34:16;;;;;;;2.85;2.60;;;;;;;;;;5015496;28;20041;-63
2022/10/31 00:36:42;;;;;;;3.28;2.97;;;;;;;;;;4998654;28;20554;-63
2022/10/31 00:39:08;;;;;;;2.53;2.33;;;;;;;;;;5014754;28;20034;-63
2022/10/31 00:41:34;;;;;;;3.45;2.20;;;;;;;;;;4998292;28;20038;-63
2022/10/31 00:44:00;;;;;;;3.38;2.63;;;;;;;;;;5001559;28;20041;-63
2022/10/31 00:46:26;;;;;;;3.40;2.65;;;;;;;;;;4995314;28;20034;-63
2022/10/31 00:48:52;;;;;;;2.85;2.65;;;;;;;;;;5015612;28;20049;-63
2022/10/31 00:51:18;;;;;;;3.72;2.45;;;;;;;;;;5014489;28;20392;-63
2022/10/31 00:53:44;;;;;;;3.35;3.05;;;;;;;;;;5014193;28;20495;-63
2022/10/31 00:56:10;;;;;;;2.60;2.40;;;;;;;;;;5012166;28;20048;-63
2022/10/31 00:58:36;;;;;;;3.00;2.80;;;;;;;;;;5017592;28;20049;-63
2022/10/31 01:01:02;;;;;;;2.58;2.38;;;;;;;;;;5012305;28;20095;-63
2022/10/31 01:03:30;;;;;;;2.83;2.63;;;;;;;;;;5012309;28;20045;-63
2022/10/31 01:06:15;;;;;;;3.42;2.95;;;;;;;;;;5013381;28;20103;-63
2022/10/31 01:08:42;;;;;;;3.13;2.90;;;;;;;;;;5015282;28;20050;-63
2022/10/31 01:11:10;;;;;;;3.90;2.65;;;;;;;;;;4999840;28;20050;-63
2022/10/31 01:13:37;;;;;;;3.40;2.75;;;;;;;;;;4998628;28;20495;-63
2022/10/31 01:16:03;;;;;;;3.25;2.95;;;;;;;;;;5016157;28;20598;-62
2022/10/31 01:18:29;;;;;;;3.00;2.80;;;;;;;;;;4998406;28;20065;-63
2022/10/31 01:21:03;;;;;;;3.00;2.70;;;;;;;;;;4998009;28;20042;-63
2022/10/31 01:23:29;;;;;;;3.00;2.70;;;;;;;;;;4999164;28;20050;-63
2022/10/31 01:26:22;;;;;;;2.97;2.78;;;;;;;;;;5002481;28;20045;-63
2022/10/31 01:28:52;;;;;;;3.28;2.97;;;;;;;;;;4995119;28;20132;-63
2022/10/31 01:31:19;;;;;;;3.08;2.88;;;;;;;;;;4998946;28;20045;-63
2022/10/31 01:33:45;;;;;;;3.47;2.90;;;;;;;;;;5005547;28;20122;-63
2022/10/31 01:36:12;;;;;;;3.08;2.78;;;;;;;;;;5000527;28;20187;-63
2022/10/31 01:38:38;;;;;;;3.05;2.78;;;;;;;;;;5019739;28;20046;-63
2022/10/31 01:41:04;;;;;;;4.25;3.85;;;;;;;;;;5018875;28;20156;-63
2022/10/31 01:43:47;;;;;;;5.22;3.47;;;;;;;;;;5018228;28;20042;-63
2022/10/31 01:46:14;;;;;;;3.17;2.88;;;;;;;;;;4997729;28;20056;-63
2022/10/31 01:48:41;;;;;;;3.42;3.13;;;;;;;;;;5019679;28;20041;-63
2022/10/31 01:51:08;;;;;;;2.75;2.53;;;;;;;;;;5016424;28;20053;-63
2022/10/31 01:53:35;;;;;;;2.97;2.78;;;;;;;;;;4994614;28;20072;-63
2022/10/31 01:56:01;;;;;;;4.05;3.47;;;;;;;;;;4995207;28;20511;-62
2022/10/31 01:58:28;;;;;;;4.05;3.65;;;;;;;;;;5018451;28;20038;-63
2022/10/31 02:00:56;;;;;;;3.88;3.47;;;;;;;;;;5020801;28;20121;-63
2022/10/31 02:03:22;;;;;;;3.85;3.55;;;;;;;;;;5013264;28;20056;-63
2022/10/31 02:05:50;;;;;;;3.92;3.60;;;;;;;;;;5014684;28;20037;-63
2022/10/31 02:08:29;;;;;;;4.85;3.53;;;;;;;;;;4997225;28;20112;-63
2022/10/31 02:10:56;;;;;;;5.82;5.00;;;;;;;;;;4995757;28;20060;-63
2022/10/31 02:13:22;;;;;;;6.75;4.50;;;;;;;;;;5016503;28;20141;-63
2022/10/31 02:15:52;;;;;;;7.20;5.50;;;;;;;;;;5017061;28;20065;-63
2022/10/31 02:18:19;;;;;;;5.60;5.03;;;;;;;;;;4998154;28;20056;-63
2022/10/31 02:20:48;;;;;;;4.55;4.13;;;;;;;;;;5013838;28;20103;-63
2022/10/31 02:23:40;;;;;;;4.40;3.72;;;;;;;;;;4996866;28;20547;-63
2022/10/31 02:26:06;;;;;;;;;;;;;;;;;;5016131;28;20053;-62
2022/10/31 02:28:44;;;;;;;3.90;3.60;;;;;;;;;;4997745;28;20004;-63
2022/10/31 02:31:25;;;;;;;3.55;3.13;;;;;;;;;;5014306;28;20034;-62
2022/10/31 02:33:56;;;;;;;4.22;3.83;;;;;;;;;;5014597;28;20041;-62
2022/10/31 02:36:26;;;;;;;3.30;3.00;;;;;;;;;;5000146;28;20553;-63
2022/10/31 02:39:01;;;;;;;3.63;2.88;;;;;;;;;;5002102;28;20037;-63
2022/10/31 02:41:27;;;;;;;2.80;2.45;;;;;;;;;;5013879;28;20117;-63
2022/10/31 02:44:17;;;;;;;3.75;3.05;;;;;;;;;;4993427;28;20121;-62
2022/10/31 02:46:49;;;;;;;3.50;3.20;;;;;;;;;;4996666;28;20116;-63
2022/10/31 02:49:21;;;;;;;3.58;3.28;;;;;;;;;;5011351;28;20125;-63
2022/10/31 02:51:47;;;;;;;3.30;3.00;;;;;;;;;;4991051;28;20104;-63
2022/10/31 02:54:18;;;;;;;3.38;3.08;;;;;;;;;;5011875;28;20442;-62
2022/10/31 02:56:44;;;;;;;3.70;3.40;;;;;;;;;;5017038;28;20056;-62
2022/10/31 02:59:10;;;;;;;2.95;2.75;;;;;;;;;;5013694;28;20037;-63
2022/10/31 03:01:36;;;;;;;3.33;3.03;;;;;;;;;;4991503;28;20052;-62
2022/10/31 03:04:21;;;;;;;3.47;3.17;;;;;;;;;;5009975;28;20053;-62
2022/10/31 03:06:54;;;;;;;3.05;2.83;;;;;;;;;;4997687;28;20041;-63
2022/10/31 03:09:25;;;;;;;3.05;2.85;;;;;;;;;;4996226;28;20042;-63
2022/10/31 03:11:58;;;;;;;3.85;3.55;;;;;;;;;;5012506;28;20037;-62
2022/10/31 03:14:27;;;;;;;3.55;3.20;;;;;;;;;;4994590;28;20053;-63
2022/10/31 03:16:54;;;;;;;4.07;3.67;;;;;;;;;;4992093;28;20147;-63
2022/10/31 03:19:24;;;;;;;5.68;4.90;;;;;;;;;;5013711;28;20107;-63
2022/10/31 03:21:53;;;;;;;4.47;4.07;;;;;;;;;;5011167;28;20041;-63
2022/10/31 03:24:19;;;;;;;4.07;3.67;;;;;;;;;;4998184;28;20072;-63
2022/10/31 03:26:48;;;;;;;3.67;3.38;;;;;;;;;;5009122;28;20043;-63
2022/10/31 03:29:15;;;;;;;3.67;3.38;;;;;;;;;;4995139;28;20465;-62
2022/10/31 03:31:50;;;;;;;4.07;3.70;;;;;;;;;;5014431;28;20077;-62
2022/10/31 03:34:17;;;;;;;3.58;3.28;;;;;;;;;;4993318;28;20045;-63
2022/10/31 03:36:45;;;;;;;3.60;3.30;;;;;;;;;;4996326;28;20041;-63
2022/10/31 03:39:13;;;;;;;3.33;3.05;;;;;;;;;;5014067;28;20129;-62
2022/10/31 03:41:41;;;;;;;3.13;2.83;;;;;;;;;;5010072;28;20143;-63
2022/10/31 03:44:11;;;;;;;3.08;2.78;;;;;;;;;;5013198;28;20575;-62
2022/10/31 03:46:37;;;;;;;4.10;3.70;;;;;;;;;;5013294;28;20042;-63
2022/10/31 03:49:04;;;;;;;3.25;2.95;;;;;;;;;;5012278;28;20496;-63
2022/10/31 03:51:37;;;;;;;2.55;2.35;;;;;;;;;;5010158;28;20489;-62
2022/10/31 03:54:14;;;;;;;2.88;2.67;;;;;;;;;;4996431;28;20045;-62
2022/10/31 03:57:15;;;;;;;3.60;3.30;;;;;;;;;;5013277;28;20052;-62
2022/10/31 03:59:43;;;;;;;3.42;3.13;;;;;;;;;;4935349;29;20113;-63
2022/10/31 04:02:13;;;;;;;2.78;2.58;;;;;;;;;;4977703;28;20165;-62
2022/10/31 04:04:40;;;;;;;3.05;2.85;;;;;;;;;;5012107;28;20053;-62
2022/10/31 04:07:07;;;;;;;3.20;3.00;;;;;;;;;;4994225;28;20044;-63
2022/10/31 04:09:34;;;;;;;3.00;2.78;;;;;;;;;;5010796;28;20408;-63
2022/10/31 04:12:01;;;;;;;3.30;3.03;;;;;;;;;;5010376;28;20050;-62
2022/10/31 04:14:31;;;;;;;3.65;3.35;;;;;;;;;;5010452;28;20488;-63
2022/10/31 04:16:57;;;;;;;3.58;3.28;;;;;;;;;;4992280;28;20073;-63
2022/10/31 04:19:23;;;;;;;3.25;2.95;;;;;;;;;;5012923;28;20045;-63
2022/10/31 04:21:49;;;;;;;3.30;3.00;;;;;;;;;;5014919;28;20053;-63
2022/10/31 04:24:15;;;;;;;3.63;3.20;;;;;;;;;;5011093;28;20046;-62
2022/10/31 04:26:41;;;;;;;2.90;2.70;;;;;;;;;;4997130;28;20397;-62
2022/10/31 04:29:07;;;;;;;3.22;2.90;;;;;;;;;;4994944;28;20053;-62
2022/10/31 04:31:33;;;;;;;3.17;2.88;;;;;;;;;;5009226;28;20053;-62
2022/10/31 04:33:59;;;;;;;3.45;2.60;;;;;;;;;;5013682;28;20045;-62
2022/10/31 04:36:25;;;;;;;3.22;2.92;;;;;;;;;;4997468;28;20641;-63
2022/10/31 04:38:51;;;;;;;2.88;2.67;;;;;;;;;;4994287;28;20137;-62
2022/10/31 04:41:17;;;;;;;3.35;3.05;;;;;;;;;;4998077;28;20038;-63
2022/10/31 04:43:43;;;;;;;2.95;2.67;;;;;;;;;;5002224;28;20448;-62
2022/10/31 04:46:09;;;;;;;3.75;3.45;;;;;;;;;;5015459;28;20042;-62
2022/10/31 04:48:35;;;;;;;2.55;2.35;;;;;;;;;;5016562;28;20509;-63
2022/10/31 04:51:01;;;;;;;3.08;2.75;;;;;;;;;;5015816;28;20044;-62
2022/10/31 04:53:27;;;;;;;2.75;2.55;;;;;;;;;;4999740;28;20042;-62
2022/10/31 04:55:53;;;;;;;2.88;2.67;;;;;;;;;;5011824;28;20528;-62
2022/10/31 04:58:19;;;;;;;3.45;2.80;;;;;;;;;;4997209;28;20231;-62
2022/10/31 05:00:45;;;;;;;3.03;2.47;;;;;;;;;;5014738;28;20061;-63
2022/10/31 05:03:11;;;;;;;2.92;2.72;;;;;;;;;;5017357;28;20054;-63
2022/10/31 05:05:37;;;;;;;2.70;2.50;;;;;;;;;;4997485;28;20621;-62
2022/10/31 05:08:03;;;;;;;2.35;2.15;;;;;;;;;;4996092;28;20197;-62
2022/10/31 05:10:30;;;;;;;2.45;2.25;;;;;;;;;;5015250;28;20051;-62
2022/10/31 05:12:57;;;;;;;2.53;2.33;;;;;;;;;;4997583;28;20042;-62
2022/10/31 05:15:24;;;;;;;2.22;2.03;;;;;;;;;;4994735;28;20077;-63
2022/10/31 05:17:51;;;;;;;2.58;2.30;;;;;;;;;;5013032;28;20045;-62
2022/10/31 05:20:18;;;;;;;2.53;2.20;;;;;;;;;;5013291;28;20049;-62
2022/10/31 05:22:44;;;;;;;2.08;1.75;;;;;;;;;;4998953;28;20099;-62
2022/10/31 05:25:11;;;;;;;2.38;2.17;;;;;;;;;;4997650;28;20056;-63
2022/10/31 05:27:44;;;;;;;2.20;2.00;;;;;;;;;;4998580;28;20465;-62
2022/10/31 05:30:12;;;;;;;2.53;2.33;;;;;;;;;;4994196;28;20072;-63
2022/10/31 05:32:38;;;;;;;2.30;2.10;;;;;;;;;;4998394;28;20052;-63
2022/10/31 05:35:05;;;;;;;3.40;2.20;;;;;;;;;;5012943;28;20080;-63
2022/10/31 05:37:31;;;;;;;2.78;2.50;;;;;;;;;;4991973;28;20038;-62
2022/10/31 05:39:57;;;;;;;3.03;2.75;;;;;;;;;;4993995;28;20050;-62
2022/10/31 05:42:23;;;;;;;2.50;2.30;;;;;;;;;;5016445;28;20045;-62
2022/10/31 05:44:49;;;;;;;2.97;2.72;;;;;;;;;;5018390;28;20080;-62
2022/10/31 05:47:15;;;;;;;2.53;2.33;;;;;;;;;;4993757;28;20160;-63
2022/10/31 05:49:41;;;;;;;2.90;2.70;;;;;;;;;;5014570;28;20045;-63
2022/10/31 05:52:07;;;;;;;2.88;2.67;;;;;;;;;;4996831;28;20095;-62
2022/10/31 05:54:33;;;;;;;3.25;2.95;;;;;;;;;;4996870;28;20052;-62
2022/10/31 05:56:59;;;;;;;3.28;2.97;;;;;;;;;;5014757;28;20603;-62
2022/10/31 05:59:24;;;;;;;2.67;2.47;;;;;;;;;;5011513;28;20137;-62
2022/10/31 06:01:50;;;;;;;3.03;2.72;;;;;;;;;;4993588;28;20037;-62
2022/10/31 06:04:16;;;;;;;3.25;2.92;;;;;;;;;;5010180;28;20045;-62
2022/10/31 06:06:42;;;;;;;2.78;2.58;;;;;;;;;;5015807;28;20044;-62
2022/10/31 06:09:08;;;;;;;4.20;2.80;;;;;;;;;;4991835;28;20068;-62
2022/10/31 06:11:34;;;;;;;2.65;2.42;;;;;;;;;;5007321;28;20046;-62
2022/10/31 06:14:00;;;;;;;2.20;2.10;;;;;;;;;;4986447;28;20038;-62
2022/10/31 06:16:26;;;;;;;3.60;2.63;;;;;;;;;;4988048;28;20042;-63
2022/10/31 06:18:52;;;;;;;2.92;2.72;;;;;;;;;;5013219;28;20128;-62
2022/10/31 06:21:18;;;;;;;3.28;2.97;;;;;;;;;;5011532;28;20113;-63
2022/10/31 06:23:44;;;;;;;2.88;2.67;;;;;;;;;;5012463;28;20050;-62
2022/10/31 06:26:10;;;;;;;2.72;2.53;;;;;;;;;;4993087;28;20049;-62
2022/10/31 06:28:36;;;;;;;3.15;2.90;;;;;;;;;;4993078;28;20125;-64
2022/10/31 06:31:02;;;;;;;2.53;2.33;;;;;;;;;;4992652;28;20370;-64
2022/10/31 06:33:28;;;;;;;2.78;2.58;;;;;;;;;;4998214;28;20041;-64
2022/10/31 06:35:54;;;;;;;2.97;2.60;;;;;;;;;;4996148;28;20105;-63
2022/10/31 06:38:20;;;;;;;3.00;2.80;;;;;;;;;;4990821;28;20049;-63
2022/10/31 06:40:46;;;;;;;2.88;2.67;;;;;;;;;;4997846;28;20981;-63
2022/10/31 06:43:14;;;;;;;3.78;2.72;;;;;;;;;;5011221;28;20085;-62
2022/10/31 06:45:40;;;;;;;3.38;3.05;;;;;;;;;;4994315;28;20518;-63
2022/10/31 06:48:08;;;;;;;3.05;2.75;;;;;;;;;;4993278;28;20053;-63
2022/10/31 06:50:34;;;;;;;2.67;2.45;;;;;;;;;;5008164;28;20647;-63
2022/10/31 06:53:00;;;;;;;2.75;2.55;;;;;;;;;;4994522;28;20124;-63
2022/10/31 06:55:27;;;;;;;3.03;2.70;;;;;;;;;;5014418;28;20238;-63
2022/10/31 06:57:57;;;;;;;3.30;3.00;;;;;;;;;;5014025;28;20147;-63
2022/10/31 07:00:24;;;;;;;2.67;2.47;;;;;;;;;;5010502;28;20037;-63
2022/10/31 07:02:54;;;;;;;2.80;2.60;;;;;;;;;;5012227;28;20050;-63
2022/10/31 07:05:20;;;;;;;2.08;1.95;;;;;;;;;;5010208;28;20129;-63
2022/10/31 07:07:46;;;;;;;2.55;2.35;;;;;;;;;;4999398;28;20120;-63
2022/10/31 07:10:12;;;;;;;2.88;2.00;;;;;;;;;;4994910;28;20573;-63
2022/10/31 07:12:37;;;;;;;2.55;2.35;;;;;;;;;;4996798;28;20128;-63
2022/10/31 07:15:04;;;;;;;4.13;2.55;;;;;;;;;;4992571;28;20072;-63
2022/10/31 07:17:30;;;;;;;2.85;2.45;;;;;;;;;;4993037;28;20411;-63
2022/10/31 07:19:56;;;;;;;2.10;2.00;;;;;;;;;;5012368;28;20045;-62
2022/10/31 07:22:22;;;;;;;2.47;2.22;;;;;;;;;;4993769;28;20408;-63
2022/10/31 07:24:48;;;;;;;2.63;2.42;;;;;;;;;;4992420;28;20080;-63
2022/10/31 07:27:14;;;;;;;2.72;2.53;;;;;;;;;;4994671;28;20928;-63
2022/10/31 07:29:40;;;;;;;2.33;2.13;;;;;;;;;;4994301;28;20052;-63
2022/10/31 07:32:06;;;;;;;2.45;2.25;;;;;;;;;;4995455;28;20735;-63
2022/10/31 07:34:32;;;;;;;2.85;2.65;;;;;;;;;;5009157;28;20042;-63
2022/10/31 07:36:58;;;;;;;2.50;2.30;;;;;;;;;;4993403;28;20042;-63
2022/10/31 07:39:24;;;;;;;2.55;2.35;;;;;;;;;;4997242;28;20095;-63
2022/10/31 07:41:50;;;;;;;2.72;2.53;;;;;;;;;;4992898;28;20041;-63
2022/10/31 07:44:16;;;;;;;3.17;2.92;;;;;;;;;;5009962;28;20069;-63
2022/10/31 07:46:42;;;;;;;3.15;2.63;;;;;;;;;;5011592;28;19930;-63
2022/10/31 07:49:08;;;;;;;3.10;2.90;;;;;;;;;;5015009;28;20046;-63
2022/10/31 07:51:34;;;;;;;2.97;2.78;;;;;;;;;;5010469;28;20041;-63
2022/10/31 07:54:00;;;;;;;3.10;2.90;;;;;;;;;;5013132;28;20041;-63
2022/10/31 07:56:26;;;;;;;3.15;2.85;;;;;;;;;;5002931;28;20042;-63
2022/10/31 07:58:52;;;;;;;3.33;3.03;;;;;;;;;;5009869;28;20042;-63
2022/10/31 08:01:18;;;;;;;4.22;3.83;;;;;;;;;;5001135;28;20048;-63
2022/10/31 08:03:44;;;;;;;3.85;3.55;;;;;;;;;;4987007;28;20080;-63
2022/10/31 08:06:10;;;;;;;4.50;3.88;;;;;;;;;;5007043;28;20046;-62
2022/10/31 08:08:37;;;;;;;4.32;3.92;;;;;;;;;;5014043;28;20099;-62
2022/10/31 08:11:03;;;;;;;3.72;3.42;;;;;;;;;;5020721;28;20294;-62
2022/10/31 08:13:29;;;;;;;4.03;3.73;;;;;;;;;;4989015;28;20075;-62
2022/10/31 08:15:55;;;;;;;4.57;4.18;;;;;;;;;;4989561;28;20058;-62
2022/10/31 08:18:23;;;;;;;4.25;3.85;;;;;;;;;;4997665;28;20181;-63
2022/10/31 08:20:49;;;;;;;4.20;3.80;;;;;;;;;;5018040;28;20096;-63
2022/10/31 08:23:15;;;;;;;4.40;3.80;;;;;;;;;;5009359;28;20056;-63
2022/10/31 08:25:42;;;;;;;;;;;;;;;;;;5015750;28;20307;-63
2022/10/31 08:28:09;;;;;;;4.38;3.70;;;;;;;;;;5001290;28;19921;-63
2022/10/31 08:30:36;;;;;;;3.50;3.20;;;;;;;;;;4998324;28;20057;-63
2022/10/31 08:33:06;;;;;;;3.70;3.40;;;;;;;;;;4993991;28;20245;-63
2022/10/31 08:35:32;;;;;;;;;;;;;;;;;;5008361;28;20045;-63
2022/10/31 08:37:58;;;;;;;;;;;;;;;;;;4991203;28;19921;-63
2022/10/31 08:40:24;;;;;;;;;;;;;;;;;;4995875;28;20376;-63
2022/10/31 08:42:49;;;;;;;;;;;;;;;;;;5009501;28;19921;-63
2022/10/31 08:45:15;;;;;;;;;;;;;;;;;;4987802;28;19926;-63
2022/10/31 08:47:41;;;;;;;;;;;;;;;;;;4989526;28;19925;-63
2022/10/31 08:50:07;;;;;;;;;;;;;;;;;;5006166;28;20690;-64
2022/10/31 08:52:33;;;;;;;;;;;;;;;;;;4988731;28;19932;-63
2022/10/31 08:54:59;;;;;;;;;;;;;;;;;;4989048;28;20552;-64
2022/10/31 08:57:25;;;;;;;;;;;;;;;;;;5005552;28;19921;-63
2022/10/31 08:59:51;;;;;;;;;;;;;;;;;;4988746;28;19922;-62
2022/10/31 09:02:17;;;;;;;;;;;;;;;;;;5005796;28;19921;-61
2022/10/31 09:04:43;;;;;;;;;;;;;;;;;;4981262;28;20315;-62
2022/10/31 09:07:09;;;;;;;;;;;;;;;;;;4977058;28;19929;-63
2022/10/31 09:09:35;;;;;;;;;;;;;;;;;;4984140;28;20364;-62
2022/10/31 09:12:01;;;;;;;;;;;;;;;;;;4996956;28;19976;-62
2022/10/31 09:14:27;;;;;;;3.83;3.53;;;;;;;;;;4975157;28;19922;-62
2022/10/31 09:16:52;;;;;;;;;;;;;;;;;;4980703;28;20054;-62
2022/10/31 09:19:18;;;;;;;;;;;;;;;;;;4993404;28;20277;-63
2022/10/31 09:21:44;;;;;;;;;;;;;;;;;;4970462;28;19928;-62
2022/10/31 09:24:10;;;;;;;4.38;3.95;;;;;;;;;;4968473;28;19969;-62
2022/10/31 09:26:36;;;;;;;;;;;;;;;;;;4980404;28;20041;-61
2022/10/31 09:29:02;;;;;;;;;;;;;;;;;;4987117;28;19930;-62
2022/10/31 09:31:28;;;;;;;;;;;;;;;;;;4985901;28;19928;-62
2022/10/31 09:33:54;;;;;;;;;;;;;;;;;;5004411;28;19956;-62
2022/10/31 09:36:20;;;;;;;;;;;;;;;;;;5006604;28;20329;-62
2022/10/31 09:38:46;;;;;;;;;;;;;;;;;;5000093;28;20396;-63
2022/10/31 09:41:12;;;;;;;;;;;;;;;;;;4985647;28;20398;-62
2022/10/31 09:43:38;;;;;;;;;;;;;;;;;;4992850;28;19953;-63
2022/10/31 09:46:14;;;;;;;4.43;4.03;;;;;;;;;;5001363;28;20295;-63
2022/10/31 09:48:42;;;;;;;4.40;4.00;;;;;;;;;;4998206;28;20038;-63
2022/10/31 09:51:28;;;;;;;3.67;3.38;;;;;;;;;;4990810;28;20056;-65
2022/10/31 09:53:59;;;;;;;4.43;4.07;;;;;;;;;;5007722;28;20080;-62
2022/10/31 09:56:26;;;;;;;8.05;5.80;;;;;;;;;;4990573;28;20053;-63
2022/10/31 09:58:53;;;;;;;;;;;;;;;;;;4999680;28;20389;-63
2022/10/31 10:01:19;;;;;;;;;;;;;;;;;;4986660;28;19930;-62
2022/10/31 10:03:45;;;;;;;;;;;;;;;;;;4990685;28;19928;-63
2022/10/31 10:06:11;;;;;;;5.30;4.85;;;;;;;;;;5008565;28;20371;-62
2022/10/31 10:08:38;;;;;;;5.47;4.95;;;;;;;;;;4983322;28;20488;-62
2022/10/31 10:11:22;;;;;;;6.60;5.88;;;;;;;;;;4990306;28;20438;-63
2022/10/31 10:13:48;;;;;;;;;;;;;;;;;;4991255;28;20050;-63
2022/10/31 10:16:14;;;;;;;;;;;;;;;;;;4989634;28;19932;-62
2022/10/31 10:18:40;;;;;;;;;;;;;;;;;;5009155;28;20355;-63
2022/10/31 10:21:06;;;;;;;;;;;;;;;;;;4981219;28;19977;-62
2022/10/31 10:23:32;;;;;;;;;;;;;;;;;;4975587;28;20205;-62
2022/10/31 10:26:07;;;;;;;5.22;4.72;;;;;;;;;;5007935;28;20028;-62
2022/10/31 10:28:38;;;;;;;5.90;5.30;;;;;;;;;;4976563;28;20058;-62
2022/10/31 10:31:14;;;;;;;6.35;5.75;;;;;;;;;;5000068;28;20452;-62
2022/10/31 10:33:43;;;;;;;6.70;6.10;;;;;;;;;;5008361;28;20562;-62
2022/10/31 10:36:19;;;;;;;6.35;5.75;;;;;;;;;;5007690;28;20500;-62
2022/10/31 10:38:50;;;;;;;5.70;5.20;;;;;;;;;;4989820;28;20037;-63
2022/10/31 10:41:21;;;;;;;6.78;6.13;;;;;;;;;;4990030;28;20050;-63
2022/10/31 10:43:49;;;;;;;6.72;6.03;;;;;;;;;;4989493;28;20103;-62
2022/10/31 10:49:19;;;;;;;5.78;5.28;;;;;;;;;;5004169;28;20046;-62
2022/10/31 10:51:46;;;;;;;5.82;5.30;;;;;;;;;;5005186;28;20045;-62
2022/10/31 10:54:18;;;;;;;6.22;5.68;;;;;;;;;;4990094;28;20759;-62
2022/10/31 10:56:44;;;;;;;;;;;;;;;;;;5007562;28;20054;-62
2022/10/31 10:59:11;;;;;;;6.53;5.90;;;;;;;;;;4990212;28;19974;-62
2022/10/31 11:01:38;;;;;;;5.63;4.95;;;;;;;;;;4987224;28;20058;-64
2022/10/31 11:04:11;;;;;;;4.85;4.35;;;;;;;;;;5006819;28;20053;-62
2022/10/31 11:06:37;;;;;;;6.05;5.55;;;;;;;;;;5006768;28;20042;-62
2022/10/31 11:09:09;;;;;;;7.13;6.32;;;;;;;;;;5007217;28;20521;-64
2022/10/31 11:11:35;;;;;;;6.25;5.63;;;;;;;;;;5003638;28;20176;-63
2022/10/31 11:14:12;;;;;;;5.20;4.70;;;;;;;;;;5006285;28;20050;-66
2022/10/31 11:16:42;;;;;;;5.22;4.82;;;;;;;;;;4992277;28;20057;-64
2022/10/31 11:19:14;;;;;;;5.20;4.80;;;;;;;;;;5000200;28;20046;-64
2022/10/31 11:21:41;;;;;;;5.70;5.28;;;;;;;;;;5004807;28;20050;-63
2022/10/31 11:24:09;;;;;;;7.43;4.93;;;;;;;;;;5003114;28;20078;-63
2022/10/31 11:26:37;;;;;;;8.90;5.20;;;;;;;;;;4994455;28;20046;-63
2022/10/31 11:29:05;;;;;;;6.13;5.55;;;;;;;;;;4987845;28;20065;-63
2022/10/31 11:31:32;;;;;;;5.70;5.13;;;;;;;;;;5004532;28;20084;-63
2022/10/31 11:34:02;;;;;;;5.30;4.88;;;;;;;;;;5003461;28;20045;-63
2022/10/31 11:36:33;;;;;;;5.60;5.10;;;;;;;;;;5006383;28;20070;-63
2022/10/31 11:39:00;;;;;;;6.95;5.78;;;;;;;;;;5005812;28;20061;-63
2022/10/31 11:41:31;;;;;;;4.85;4.43;;;;;;;;;;5006134;28;20413;-63
2022/10/31 11:44:02;;;;;;;4.55;4.15;;;;;;;;;;5006663;28;20677;-63
2022/10/31 11:46:34;;;;;;;4.32;3.80;;;;;;;;;;4998742;28;20049;-63
2022/10/31 11:49:01;;;;;;;4.78;4.25;;;;;;;;;;4986987;28;20046;-62
2022/10/31 11:51:29;;;;;;;4.85;4.40;;;;;;;;;;5005770;28;20046;-61
2022/10/31 11:53:56;;;;;;;5.10;4.60;;;;;;;;;;5005555;28;20662;-61
2022/10/31 11:56:22;;;;;;;4.63;4.22;;;;;;;;;;5006033;28;20057;-62
2022/10/31 11:59:03;;;;;;;7.70;5.97;;;;;;;;;;5006527;28;20037;-62
2022/10/31 12:01:30;;;;;;;6.30;5.70;;;;;;;;;;5005552;28;20118;-61
2022/10/31 12:04:12;;;;;;;5.70;5.20;;;;;;;;;;5006026;28;20053;-62
2022/10/31 12:06:38;;;;;;;;;;;;;;;;;;5006994;28;20075;-62
2022/10/31 12:09:16;;;;;;;6.07;5.25;;;;;;;;;;4992538;28;19996;-62
2022/10/31 12:11:51;;;;;;;6.57;5.88;;;;;;;;;;4986855;28;20137;-62
2022/10/31 12:14:19;;;;;;;5.28;4.88;;;;;;;;;;4985660;28;20046;-61
2022/10/31 12:16:56;;;;;;;8.45;6.45;;;;;;;;;;4986596;28;20083;-61
2022/10/31 12:19:31;;;;;;;8.95;6.82;;;;;;;;;;4968890;28;20523;-61
2022/10/31 12:21:57;;;;;;;5.43;4.95;;;;;;;;;;4994642;28;20589;-61
2022/10/31 12:24:29;;;;;;;6.18;5.15;;;;;;;;;;4998313;28;20045;-61
2022/10/31 12:27:11;;;;;;;4.88;4.47;;;;;;;;;;4985814;28;20054;-62
2022/10/31 12:29:44;;;;;;;4.38;3.97;;;;;;;;;;4968744;28;20054;-62
2022/10/31 12:32:19;;;;;;;6.53;4.63;;;;;;;;;;5005597;28;20056;-61
2022/10/31 12:35:04;;;;;;;3.92;3.58;;;;;;;;;;5006021;28;20589;-61
2022/10/31 12:37:30;;;;;;;5.53;4.25;;;;;;;;;;5005992;28;20084;-61
2022/10/31 12:40:14;;;;;;;5.28;4.70;;;;;;;;;;4999706;28;20078;-61
2022/10/31 12:42:43;;;;;;;4.75;4.35;;;;;;;;;;4997086;28;20128;-61
2022/10/31 12:45:32;;;;;;;6.35;4.35;;;;;;;;;;5001952;28;20440;-61
2022/10/31 12:48:11;;;;;;;4.78;3.58;;;;;;;;;;4975993;28;20085;-61
2022/10/31 12:50:40;;;;;;;4.50;3.75;;;;;;;;;;5005273;28;20042;-61
2022/10/31 12:53:35;;;;;;;8.52;4.13;;;;;;;;;;5005384;28;20523;-63
2022/10/31 12:56:14;;;;;;;4.22;3.28;;;;;;;;;;4987909;28;20520;-63
2022/10/31 12:58:48;;;;;;;4.07;2.83;;;;;;;;;;5005309;28;20041;-63
2022/10/31 13:01:20;;;;;;;5.30;3.55;;;;;;;;;;4990617;28;20042;-63
2022/10/31 13:03:46;;;;;;;2.90;2.70;;;;;;;;;;4994781;28;20053;-64
2022/10/31 13:06:17;;;;;;;3.20;2.90;;;;;;;;;;5009211;28;20511;-64
2022/10/31 13:08:54;;;;;;;3.95;2.53;;;;;;;;;;5009615;28;20042;-63
2022/10/31 13:11:27;;;;;;;3.75;3.10;;;;;;;;;;5008774;28;20050;-64
2022/10/31 13:13:58;;;;;;;5.15;4.00;;;;;;;;;;4991928;28;20117;-64
2022/10/31 13:16:28;;;;;;;3.17;2.83;;;;;;;;;;5008915;28;20177;-63
2022/10/31 13:18:55;;;;;;;3.05;2.08;;;;;;;;;;4991352;28;20049;-64
2022/10/31 13:21:24;;;;;;;1.75;1.65;;;;;;;;;;4975649;28;20060;-64
2022/10/31 13:23:51;;;;;;;1.63;1.52;;;;;;;;;;4996769;28;20087;-63
2022/10/31 13:26:23;;;;;;;2.28;2.08;;;;;;;;;;4985857;28;20046;-64
2022/10/31 13:28:55;;;;;;;7.05;4.47;;;;;;;;;;4978604;28;20060;-64
2022/10/31 13:31:21;;;;;;;10.97;5.50;;;;;;;;;;4995278;28;20042;-64
2022/10/31 13:33:47;;;;;;;5.03;3.28;;;;;;;;;;4979156;28;20038;-64
2022/10/31 13:36:21;;;;;;;3.97;3.05;;;;;;;;;;5001019;28;20041;-64
2022/10/31 13:38:55;;;;;;;5.03;2.42;;;;;;;;;;4986394;28;20547;-64
2022/10/31 13:41:47;;;;;;;3.17;1.90;;;;;;;;;;4984367;28;20381;-64
2022/10/31 13:44:15;;;;;;;2.35;1.75;;;;;;;;;;4950552;28;20057;-64
2022/10/31 13:46:42;;;;;;;4.43;2.15;;;;;;;;;;4995611;28;20039;-64
2022/10/31 13:49:27;;;;;;;2.58;1.80;;;;;;;;;;4975302;28;20518;-64
2022/10/31 13:51:54;;;;;;;2.80;2.00;;;;;;;;;;4983232;28;20048;-64
2022/10/31 13:54:24;;;;;;;10.32;2.90;;;;;;;;;;4980835;28;20104;-63
2022/10/31 13:56:51;;;;;;;2.85;1.65;;;;;;;;;;4995885;28;20050;-64
2022/10/31 13:59:19;;;;;;;1.98;1.70;;;;;;;;;;4983159;28;20539;-64
2022/10/31 14:02:08;;;;;;;2.45;1.60;;;;;;;;;;5000569;28;20143;-64
2022/10/31 14:04:39;;;;;;;3.63;2.15;;;;;;;;;;4975514;28;20050;-64
2022/10/31 14:07:12;;;;;;;3.97;2.60;;;;;;;;;;4993722;28;20057;-64
2022/10/31 14:09:40;;;;;;;5.00;2.38;;;;;;;;;;4978918;28;20050;-63
2022/10/31 14:12:14;;;;;;;3.20;1.98;;;;;;;;;;4981027;28;20074;-64
2022/10/31 14:14:44;;;;;;;1.75;1.63;;;;;;;;;;5005633;28;20052;-64
2022/10/31 14:17:16;;;;;;;2.17;1.38;;;;;;;;;;4987739;28;20054;-64
2022/10/31 14:19:42;;;;;;;3.30;1.75;;;;;;;;;;4981067;28;20046;-64
2022/10/31 14:22:20;;;;;;;4.47;1.80;;;;;;;;;;4981543;28;20124;-64
2022/10/31 14:24:46;;;;;;;5.22;2.60;;;;;;;;;;5001503;28;20125;-64
2022/10/31 14:27:21;;;;;;;4.05;1.95;;;;;;;;;;5011872;28;20137;-64
2022/10/31 14:29:47;;;;;;;2.10;1.58;;;;;;;;;;5007998;28;20042;-64
2022/10/31 14:32:14;;;;;;;2.17;1.33;;;;;;;;;;5014355;28;20050;-64
2022/10/31 14:34:49;;;;;;;2.75;1.67;;;;;;;;;;5007345;28;20047;-64
2022/10/31 14:37:21;;;;;;;2.75;1.70;;;;;;;;;;4997113;28;20495;-64
2022/10/31 14:39:58;;;;;;;3.15;1.80;;;;;;;;;;5009370;28;20064;-64
2022/10/31 14:42:34;;;;;;;1.70;1.13;;;;;;;;;;5010985;28;20041;-64
2022/10/31 14:45:00;;;;;;;2.50;1.33;;;;;;;;;;5007724;28;20050;-64
2022/10/31 14:47:29;;;;;;;5.18;2.45;;;;;;;;;;4990566;28;20050;-64
2022/10/31 14:50:05;;;;;;;3.22;2.10;;;;;;;;;;4990716;28;20045;-63
2022/10/31 14:52:31;;;;;;;2.25;1.98;;;;;;;;;;4988578;28;20045;-64
2022/10/31 14:54:58;;;;;;;1.88;1.35;;;;;;;;;;5009880;28;20898;-64
2022/10/31 14:57:29;;;;;;;2.08;1.40;;;;;;;;;;4994109;28;20071;-64
2022/10/31 14:59:58;;;;;;;2.17;1.55;;;;;;;;;;5004426;28;20057;-64
2022/10/31 15:02:24;;;;;;;2.00;1.80;;;;;;;;;;4990071;28;20141;-64
2022/10/31 15:04:51;;;;;;;1.65;1.52;;;;;;;;;;4999570;28;20042;-63
2022/10/31 15:07:17;;;;;;;2.00;1.42;;;;;;;;;;5009553;28;20125;-63